ACA141 CYYZ-CYYC
Flight info
| Callsign | ACA141 |
|---|---|
| Flight time | N/A |
| Altitude | 34000 |
| Route | AVSEP7 MUSIT DCT SSM DCT AGLIN DCT GABOV DCT KOBID/N0455F360 DCT NILTT DCT GUDOG DCT PIKLA BIRKO6 |
| Aircraft | A321/M-SDE3FGHIRWY/LB1 |
Departure
| Time | N/A |
|---|---|
| Airport | Toronto Pearson International Airport (CYYZ) |
Arrival
| Time | 2026-05-06 18:16 |
|---|---|
| Airport | Calgary International Airport (CYYC) |
| Time | Latitude | Longitude | Altitude | Speed | Heading |
|---|---|---|---|---|---|
| 2026-05-06 15:50 | 46.84828 | -85.44218 | 33922 ft | 421 kts | 295° |
| 2026-05-06 15:50 | 46.86568 | -85.48812 | 33924 ft | 422 kts | 295° |
| 2026-05-06 15:50 | 46.90023 | -85.57957 | 33929 ft | 422 kts | 295° |
| 2026-05-06 15:51 | 46.93440 | -85.67035 | 33932 ft | 422 kts | 295° |
| 2026-05-06 15:51 | 46.96784 | -85.75951 | 33931 ft | 423 kts | 295° |
| 2026-05-06 15:52 | 47.00165 | -85.84989 | 33930 ft | 424 kts | 295° |
| 2026-05-06 15:52 | 47.03613 | -85.94247 | 33934 ft | 425 kts | 295° |
| 2026-05-06 15:53 | 47.07036 | -86.03459 | 33945 ft | 424 kts | 295° |
| 2026-05-06 15:53 | 47.10475 | -86.12754 | 33940 ft | 424 kts | 295° |
| 2026-05-06 15:54 | 47.13833 | -86.21858 | 33930 ft | 425 kts | 295° |
| 2026-05-06 15:54 | 47.17239 | -86.31129 | 33929 ft | 426 kts | 295° |
| 2026-05-06 15:55 | 47.20670 | -86.40491 | 33928 ft | 427 kts | 295° |
| 2026-05-06 15:55 | 47.24093 | -86.49871 | 33934 ft | 427 kts | 295° |
| 2026-05-06 15:56 | 47.27471 | -86.59158 | 33934 ft | 429 kts | 295° |
| 2026-05-06 15:56 | 47.30828 | -86.68420 | 33935 ft | 429 kts | 295° |
| 2026-05-06 15:57 | 47.34106 | -86.77500 | 33940 ft | 429 kts | 295° |
| 2026-05-06 15:57 | 47.37470 | -86.86847 | 33931 ft | 430 kts | 295° |
| 2026-05-06 15:58 | 47.40880 | -86.96349 | 33924 ft | 431 kts | 295° |
| 2026-05-06 15:58 | 47.44290 | -87.05894 | 33925 ft | 431 kts | 295° |
| 2026-05-06 15:59 | 47.47695 | -87.15456 | 33932 ft | 432 kts | 295° |
| 2026-05-06 15:59 | 47.51078 | -87.24996 | 33935 ft | 432 kts | 295° |
| 2026-05-06 16:00 | 47.54470 | -87.34589 | 33941 ft | 433 kts | 295° |
| 2026-05-06 16:00 | 47.57838 | -87.44151 | 33937 ft | 433 kts | 295° |
| 2026-05-06 16:01 | 47.61174 | -87.53657 | 33935 ft | 433 kts | 296° |
| 2026-05-06 16:01 | 47.64492 | -87.63147 | 33930 ft | 433 kts | 296° |
| 2026-05-06 16:02 | 47.67736 | -87.72459 | 33930 ft | 434 kts | 295° |
| 2026-05-06 16:02 | 47.71028 | -87.81943 | 33926 ft | 435 kts | 295° |
| 2026-05-06 16:03 | 47.74332 | -87.91499 | 33929 ft | 435 kts | 295° |
| 2026-05-06 16:03 | 47.77648 | -88.01120 | 33931 ft | 435 kts | 295° |
| 2026-05-06 16:04 | 47.80972 | -88.10800 | 33935 ft | 435 kts | 295° |
| 2026-05-06 16:04 | 47.84296 | -88.20520 | 33946 ft | 436 kts | 295° |
| 2026-05-06 16:05 | 47.87615 | -88.30259 | 33941 ft | 436 kts | 295° |
| 2026-05-06 16:05 | 47.90921 | -88.39996 | 33930 ft | 437 kts | 295° |
| 2026-05-06 16:06 | 47.94244 | -88.49824 | 33926 ft | 437 kts | 295° |
| 2026-05-06 16:06 | 47.97527 | -88.59570 | 33925 ft | 437 kts | 295° |
| 2026-05-06 16:07 | 48.00771 | -88.69235 | 33930 ft | 438 kts | 295° |
| 2026-05-06 16:07 | 48.03981 | -88.78835 | 33918 ft | 438 kts | 295° |
| 2026-05-06 16:08 | 48.07256 | -88.88666 | 33929 ft | 438 kts | 295° |
| 2026-05-06 16:08 | 48.10515 | -88.98483 | 33942 ft | 438 kts | 295° |
| 2026-05-06 16:09 | 48.13752 | -89.08276 | 33945 ft | 438 kts | 295° |
| 2026-05-06 16:09 | 48.16998 | -89.18130 | 33938 ft | 438 kts | 295° |
| 2026-05-06 16:10 | 48.20236 | -89.28001 | 33939 ft | 438 kts | 295° |
| 2026-05-06 16:10 | 48.23437 | -89.37800 | 33935 ft | 439 kts | 295° |
| 2026-05-06 16:11 | 48.26505 | -89.47593 | 33933 ft | 439 kts | 293° |
| 2026-05-06 16:11 | 48.29400 | -89.57541 | 33938 ft | 441 kts | 293° |
| 2026-05-06 16:12 | 48.30870 | -89.62619 | 34103 ft | 441 kts | 293° |
| 2026-05-06 16:12 | 48.32301 | -89.67568 | 34343 ft | 439 kts | 292° |
| 2026-05-06 16:12 | 48.33733 | -89.72526 | 34547 ft | 438 kts | 292° |
| 2026-05-06 16:12 | 48.35180 | -89.77545 | 34718 ft | 438 kts | 292° |
| 2026-05-06 16:13 | 48.36630 | -89.82586 | 34883 ft | 438 kts | 292° |
| 2026-05-06 16:13 | 48.38070 | -89.87597 | 35055 ft | 437 kts | 292° |
| 2026-05-06 16:13 | 48.39554 | -89.92773 | 35207 ft | 437 kts | 292° |
| 2026-05-06 16:13 | 48.41030 | -89.97933 | 35357 ft | 437 kts | 292° |
| 2026-05-06 16:14 | 48.42507 | -90.03109 | 35523 ft | 437 kts | 292° |
| 2026-05-06 16:14 | 48.43960 | -90.08212 | 35649 ft | 437 kts | 292° |
| 2026-05-06 16:14 | 48.45443 | -90.13430 | 35787 ft | 437 kts | 292° |
| 2026-05-06 16:14 | 48.46885 | -90.18514 | 35895 ft | 437 kts | 292° |
| 2026-05-06 16:15 | 48.49836 | -90.28958 | 35902 ft | 438 kts | 292° |
| 2026-05-06 16:15 | 48.52752 | -90.39320 | 35905 ft | 439 kts | 292° |
| 2026-05-06 16:16 | 48.55658 | -90.49685 | 35904 ft | 439 kts | 292° |
| 2026-05-06 16:16 | 48.58538 | -90.60013 | 35907 ft | 438 kts | 292° |
| 2026-05-06 16:17 | 48.61360 | -90.70174 | 35905 ft | 439 kts | 292° |
| 2026-05-06 16:17 | 48.64282 | -90.80733 | 35914 ft | 439 kts | 292° |
| 2026-05-06 16:18 | 48.67141 | -90.91115 | 35917 ft | 439 kts | 292° |
| 2026-05-06 16:18 | 48.69965 | -91.01413 | 35916 ft | 439 kts | 292° |
| 2026-05-06 16:19 | 48.72798 | -91.11795 | 35919 ft | 439 kts | 292° |
| 2026-05-06 16:19 | 48.75629 | -91.22214 | 35921 ft | 440 kts | 292° |
| 2026-05-06 16:20 | 48.78421 | -91.32529 | 35928 ft | 440 kts | 292° |
| 2026-05-06 16:20 | 48.81230 | -91.42960 | 35923 ft | 440 kts | 292° |
| 2026-05-06 16:21 | 48.83971 | -91.53178 | 35925 ft | 440 kts | 292° |
| 2026-05-06 16:21 | 48.86715 | -91.63460 | 35916 ft | 441 kts | 292° |
| 2026-05-06 16:22 | 48.89491 | -91.73904 | 35920 ft | 440 kts | 292° |
| 2026-05-06 16:22 | 48.92312 | -91.84569 | 35919 ft | 440 kts | 292° |
| 2026-05-06 16:23 | 48.95036 | -91.94910 | 35923 ft | 440 kts | 292° |
| 2026-05-06 16:23 | 48.97750 | -92.05254 | 35929 ft | 440 kts | 292° |
| 2026-05-06 16:24 | 49.00440 | -92.15564 | 35932 ft | 440 kts | 292° |
| 2026-05-06 16:24 | 49.03101 | -92.25804 | 35929 ft | 440 kts | 292° |
| 2026-05-06 16:25 | 49.05736 | -92.35989 | 35935 ft | 440 kts | 292° |
| 2026-05-06 16:25 | 49.08403 | -92.46340 | 35939 ft | 440 kts | 292° |
| 2026-05-06 16:26 | 49.11050 | -92.56668 | 35938 ft | 440 kts | 292° |
| 2026-05-06 16:26 | 49.13694 | -92.67029 | 35941 ft | 440 kts | 291° |
| 2026-05-06 16:27 | 49.16373 | -92.77575 | 35944 ft | 441 kts | 291° |
| 2026-05-06 16:27 | 49.19006 | -92.87991 | 35953 ft | 440 kts | 291° |
| 2026-05-06 16:28 | 49.21599 | -92.98291 | 35960 ft | 440 kts | 291° |
| 2026-05-06 16:28 | 49.24086 | -93.08213 | 35959 ft | 440 kts | 291° |
| 2026-05-06 16:29 | 49.26572 | -93.18183 | 35954 ft | 440 kts | 291° |
| 2026-05-06 16:29 | 49.29030 | -93.28081 | 35954 ft | 440 kts | 291° |
| 2026-05-06 16:30 | 49.31101 | -93.36453 | 35956 ft | 440 kts | 291° |
| 2026-05-06 16:30 | 49.34063 | -93.48480 | 35963 ft | 440 kts | 291° |
| 2026-05-06 16:31 | 49.36520 | -93.58510 | 35970 ft | 440 kts | 291° |
| 2026-05-06 16:31 | 49.39086 | -93.69035 | 35978 ft | 440 kts | 291° |
| 2026-05-06 16:32 | 49.41711 | -93.79849 | 35985 ft | 440 kts | 291° |
| 2026-05-06 16:32 | 49.44227 | -93.90268 | 35987 ft | 440 kts | 291° |
| 2026-05-06 16:33 | 49.46757 | -94.00797 | 35981 ft | 440 kts | 291° |
| 2026-05-06 16:34 | 49.50463 | -94.16901 | 35986 ft | 440 kts | 290° |
| 2026-05-06 16:34 | 49.52856 | -94.27602 | 35996 ft | 439 kts | 290° |
| 2026-05-06 16:35 | 49.55274 | -94.38439 | 36001 ft | 439 kts | 290° |
| 2026-05-06 16:35 | 49.57679 | -94.49262 | 36000 ft | 439 kts | 290° |
| 2026-05-06 16:36 | 49.60073 | -94.60082 | 36001 ft | 439 kts | 290° |
| 2026-05-06 16:36 | 49.62351 | -94.70435 | 35999 ft | 440 kts | 290° |
| 2026-05-06 16:37 | 49.64715 | -94.81229 | 35998 ft | 440 kts | 290° |
| 2026-05-06 16:37 | 49.67067 | -94.92027 | 35997 ft | 440 kts | 290° |
| 2026-05-06 16:38 | 49.69403 | -95.02806 | 35993 ft | 439 kts | 290° |
| 2026-05-06 16:38 | 49.71764 | -95.13763 | 35997 ft | 439 kts | 290° |
| 2026-05-06 16:39 | 49.74107 | -95.24694 | 36002 ft | 440 kts | 290° |
| 2026-05-06 16:39 | 49.76442 | -95.35642 | 36008 ft | 439 kts | 290° |
| 2026-05-06 16:40 | 49.78766 | -95.46596 | 36008 ft | 439 kts | 290° |
| 2026-05-06 16:40 | 49.81067 | -95.57503 | 36010 ft | 439 kts | 290° |
| 2026-05-06 16:41 | 49.83343 | -95.68354 | 36012 ft | 440 kts | 289° |
| 2026-05-06 16:41 | 49.85617 | -95.79248 | 36016 ft | 440 kts | 289° |
| 2026-05-06 16:42 | 49.87890 | -95.90205 | 36019 ft | 439 kts | 289° |
| 2026-05-06 16:42 | 49.90157 | -96.01186 | 36021 ft | 439 kts | 289° |
| 2026-05-06 16:43 | 49.92404 | -96.12133 | 36025 ft | 440 kts | 290° |
| 2026-05-06 16:43 | 49.94654 | -96.23154 | 36027 ft | 440 kts | 290° |
| 2026-05-06 16:44 | 49.96892 | -96.34178 | 36030 ft | 440 kts | 289° |
| 2026-05-06 16:44 | 49.99103 | -96.45126 | 36034 ft | 439 kts | 289° |
| 2026-05-06 16:45 | 50.01305 | -96.56096 | 36034 ft | 439 kts | 290° |
| 2026-05-06 16:45 | 50.03476 | -96.66975 | 36030 ft | 440 kts | 289° |
| 2026-05-06 16:46 | 50.05678 | -96.78069 | 36031 ft | 440 kts | 289° |
| 2026-05-06 16:46 | 50.07836 | -96.88998 | 36036 ft | 440 kts | 289° |
| 2026-05-06 16:47 | 50.09997 | -97.00008 | 36046 ft | 440 kts | 289° |
| 2026-05-06 16:47 | 50.12109 | -97.10835 | 36054 ft | 440 kts | 289° |
| 2026-05-06 16:48 | 50.14215 | -97.21692 | 36055 ft | 439 kts | 289° |
| 2026-05-06 16:48 | 50.16363 | -97.32819 | 36056 ft | 439 kts | 289° |
| 2026-05-06 16:49 | 50.18511 | -97.44023 | 36052 ft | 440 kts | 289° |
| 2026-05-06 16:49 | 50.20620 | -97.55090 | 36050 ft | 440 kts | 289° |
| 2026-05-06 16:50 | 50.22700 | -97.66058 | 36046 ft | 440 kts | 289° |
| 2026-05-06 16:50 | 50.24747 | -97.76911 | 36049 ft | 440 kts | 289° |
| 2026-05-06 16:51 | 50.26817 | -97.87962 | 36052 ft | 440 kts | 289° |
| 2026-05-06 16:51 | 50.28860 | -97.98937 | 36057 ft | 439 kts | 289° |
| 2026-05-06 16:52 | 50.30931 | -98.10121 | 36063 ft | 440 kts | 289° |
| 2026-05-06 16:52 | 50.32968 | -98.21190 | 36059 ft | 439 kts | 289° |
| 2026-05-06 16:53 | 50.34978 | -98.32179 | 36052 ft | 438 kts | 289° |
| 2026-05-06 16:53 | 50.36994 | -98.43262 | 36051 ft | 438 kts | 289° |
| 2026-05-06 16:54 | 50.38981 | -98.54249 | 36051 ft | 439 kts | 289° |
| 2026-05-06 16:54 | 50.40976 | -98.65360 | 36050 ft | 439 kts | 288° |
| 2026-05-06 16:55 | 50.42635 | -98.76479 | 36054 ft | 441 kts | 282° |
| 2026-05-06 16:55 | 50.43793 | -98.87955 | 36063 ft | 441 kts | 282° |
| 2026-05-06 16:56 | 50.44935 | -98.99592 | 36061 ft | 441 kts | 282° |
| 2026-05-06 16:56 | 50.46053 | -99.11031 | 36057 ft | 441 kts | 282° |
| 2026-05-06 16:57 | 50.47165 | -99.22506 | 36050 ft | 440 kts | 282° |
| 2026-05-06 16:57 | 50.48269 | -99.34025 | 36044 ft | 440 kts | 282° |
| 2026-05-06 16:58 | 50.49364 | -99.45561 | 36035 ft | 440 kts | 282° |
| 2026-05-06 16:58 | 50.50438 | -99.57024 | 36018 ft | 440 kts | 283° |
| 2026-05-06 16:59 | 50.51505 | -99.68508 | 36001 ft | 439 kts | 282° |
| 2026-05-06 16:59 | 50.52551 | -99.79885 | 35988 ft | 440 kts | 282° |
| 2026-05-06 17:00 | 50.53593 | -99.91389 | 35991 ft | 439 kts | 282° |
| 2026-05-06 17:00 | 50.54612 | -100.02739 | 35998 ft | 438 kts | 282° |
| 2026-05-06 17:01 | 50.55605 | -100.13909 | 36003 ft | 439 kts | 282° |
| 2026-05-06 17:01 | 50.56578 | -100.25014 | 36008 ft | 438 kts | 282° |
| 2026-05-06 17:02 | 50.57542 | -100.36137 | 36009 ft | 438 kts | 282° |
| 2026-05-06 17:02 | 50.58512 | -100.47412 | 36005 ft | 438 kts | 282° |
| 2026-05-06 17:03 | 50.59459 | -100.58591 | 36002 ft | 437 kts | 283° |
| 2026-05-06 17:03 | 50.60386 | -100.69655 | 36002 ft | 437 kts | 282° |
| 2026-05-06 17:04 | 50.61279 | -100.80432 | 36009 ft | 437 kts | 282° |
| 2026-05-06 17:04 | 50.62185 | -100.91494 | 36019 ft | 437 kts | 282° |
| 2026-05-06 17:05 | 50.63081 | -101.02577 | 36015 ft | 437 kts | 282° |
| 2026-05-06 17:05 | 50.63964 | -101.13628 | 36024 ft | 436 kts | 282° |
| 2026-05-06 17:06 | 50.64850 | -101.24828 | 36023 ft | 436 kts | 282° |
| 2026-05-06 17:06 | 50.65712 | -101.35897 | 36029 ft | 436 kts | 283° |
| 2026-05-06 17:07 | 50.66573 | -101.47100 | 36026 ft | 435 kts | 283° |
| 2026-05-06 17:07 | 50.67411 | -101.58114 | 36033 ft | 435 kts | 283° |
| 2026-05-06 17:08 | 50.68227 | -101.69010 | 36036 ft | 434 kts | 282° |
| 2026-05-06 17:08 | 50.69030 | -101.79839 | 36031 ft | 435 kts | 282° |
| 2026-05-06 17:09 | 50.69824 | -101.90703 | 36044 ft | 434 kts | 283° |
| 2026-05-06 17:09 | 50.70618 | -102.01700 | 36051 ft | 433 kts | 283° |
| 2026-05-06 17:10 | 50.71403 | -102.12728 | 36050 ft | 433 kts | 283° |
| 2026-05-06 17:10 | 50.72176 | -102.23727 | 36040 ft | 432 kts | 283° |
| 2026-05-06 17:11 | 50.72937 | -102.34756 | 36046 ft | 432 kts | 283° |
| 2026-05-06 17:11 | 50.73683 | -102.45654 | 36038 ft | 431 kts | 283° |
| 2026-05-06 17:12 | 50.74424 | -102.56632 | 36033 ft | 431 kts | 283° |
| 2026-05-06 17:12 | 50.75141 | -102.67446 | 36030 ft | 429 kts | 283° |
| 2026-05-06 17:13 | 50.75847 | -102.78220 | 36030 ft | 430 kts | 283° |
| 2026-05-06 17:13 | 50.76543 | -102.89009 | 36024 ft | 429 kts | 283° |
| 2026-05-06 17:14 | 50.77236 | -102.99960 | 36026 ft | 429 kts | 284° |
| 2026-05-06 17:14 | 50.77922 | -103.10904 | 36041 ft | 426 kts | 284° |
| 2026-05-06 17:15 | 50.78593 | -103.21758 | 36055 ft | 426 kts | 284° |
| 2026-05-06 17:15 | 50.79253 | -103.32621 | 36045 ft | 425 kts | 284° |
| 2026-05-06 17:16 | 50.79901 | -103.43473 | 36060 ft | 425 kts | 284° |
| 2026-05-06 17:16 | 50.80533 | -103.54201 | 36049 ft | 423 kts | 284° |
| 2026-05-06 17:17 | 50.81159 | -103.65049 | 36030 ft | 423 kts | 284° |
| 2026-05-06 17:17 | 50.81754 | -103.75446 | 36036 ft | 421 kts | 284° |
| 2026-05-06 17:18 | 50.82347 | -103.86034 | 36044 ft | 421 kts | 284° |
| 2026-05-06 17:18 | 50.82934 | -103.96676 | 36035 ft | 422 kts | 284° |
| 2026-05-06 17:19 | 50.83516 | -104.07411 | 36038 ft | 419 kts | 284° |
| 2026-05-06 17:19 | 50.84082 | -104.18039 | 36040 ft | 420 kts | 285° |
| 2026-05-06 17:20 | 50.84641 | -104.28713 | 36035 ft | 418 kts | 285° |
| 2026-05-06 17:20 | 50.85196 | -104.39458 | 36051 ft | 417 kts | 284° |
| 2026-05-06 17:21 | 50.85732 | -104.50032 | 35902 ft | 416 kts | 285° |
| 2026-05-06 17:21 | 50.86262 | -104.60678 | 36031 ft | 419 kts | 284° |
| 2026-05-06 17:22 | 50.86773 | -104.71217 | 36057 ft | 420 kts | 284° |
| 2026-05-06 17:22 | 50.87271 | -104.81618 | 36062 ft | 419 kts | 284° |
| 2026-05-06 17:23 | 50.87763 | -104.92145 | 36057 ft | 418 kts | 284° |
| 2026-05-06 17:23 | 50.88448 | -105.02689 | 36061 ft | 412 kts | 288° |
| 2026-05-06 17:24 | 50.89797 | -105.12904 | 36052 ft | 405 kts | 292° |
| 2026-05-06 17:24 | 50.91310 | -105.23050 | 36043 ft | 405 kts | 292° |
| 2026-05-06 17:25 | 50.92814 | -105.33195 | 36048 ft | 404 kts | 293° |
| 2026-05-06 17:25 | 50.94306 | -105.43316 | 36051 ft | 403 kts | 292° |
| 2026-05-06 17:26 | 50.95798 | -105.53490 | 36054 ft | 403 kts | 292° |
| 2026-05-06 17:26 | 50.97266 | -105.63613 | 36044 ft | 403 kts | 292° |
| 2026-05-06 17:27 | 50.98719 | -105.73688 | 36052 ft | 404 kts | 292° |
| 2026-05-06 17:27 | 51.00163 | -105.83756 | 36047 ft | 404 kts | 292° |
| 2026-05-06 17:28 | 51.01632 | -105.94059 | 36046 ft | 403 kts | 291° |
| 2026-05-06 17:28 | 51.03077 | -106.04271 | 36044 ft | 402 kts | 291° |
| 2026-05-06 17:29 | 51.04533 | -106.14640 | 36044 ft | 402 kts | 291° |
| 2026-05-06 17:29 | 51.05984 | -106.25039 | 36048 ft | 404 kts | 291° |
| 2026-05-06 17:30 | 51.07439 | -106.35538 | 36053 ft | 403 kts | 291° |
| 2026-05-06 17:30 | 51.08862 | -106.45893 | 36049 ft | 403 kts | 291° |
| 2026-05-06 17:31 | 51.10252 | -106.56054 | 36054 ft | 402 kts | 291° |
| 2026-05-06 17:31 | 51.11595 | -106.65964 | 36065 ft | 401 kts | 290° |
| 2026-05-06 17:32 | 51.12921 | -106.75800 | 36042 ft | 403 kts | 290° |
| 2026-05-06 17:32 | 51.14269 | -106.85872 | 36043 ft | 403 kts | 290° |
| 2026-05-06 17:33 | 51.15623 | -106.96062 | 36031 ft | 403 kts | 290° |
| 2026-05-06 17:33 | 51.16968 | -107.06258 | 36032 ft | 403 kts | 290° |
| 2026-05-06 17:34 | 51.18313 | -107.16530 | 36032 ft | 402 kts | 290° |
| 2026-05-06 17:34 | 51.19656 | -107.26852 | 36026 ft | 402 kts | 290° |
| 2026-05-06 17:35 | 51.20987 | -107.37176 | 36024 ft | 403 kts | 290° |
| 2026-05-06 17:35 | 51.22338 | -107.47706 | 36026 ft | 402 kts | 290° |
| 2026-05-06 17:36 | 51.24371 | -107.63738 | 36029 ft | 402 kts | 290° |
| 2026-05-06 17:36 | 51.25692 | -107.74236 | 36030 ft | 404 kts | 289° |
| 2026-05-06 17:37 | 51.27011 | -107.84815 | 36028 ft | 404 kts | 289° |
| 2026-05-06 17:37 | 51.28342 | -107.95583 | 36026 ft | 403 kts | 289° |
| 2026-05-06 17:38 | 51.29668 | -108.06381 | 36021 ft | 403 kts | 289° |
| 2026-05-06 17:38 | 51.30970 | -108.17073 | 36010 ft | 403 kts | 289° |
| 2026-05-06 17:39 | 51.32266 | -108.27820 | 36007 ft | 403 kts | 289° |
| 2026-05-06 17:39 | 51.33540 | -108.38447 | 36003 ft | 403 kts | 289° |
| 2026-05-06 17:40 | 51.34810 | -108.49147 | 36011 ft | 402 kts | 289° |
| 2026-05-06 17:40 | 51.36087 | -108.59972 | 36009 ft | 402 kts | 289° |
| 2026-05-06 17:41 | 51.37315 | -108.70486 | 36013 ft | 402 kts | 289° |
| 2026-05-06 17:41 | 51.38522 | -108.80904 | 36020 ft | 402 kts | 289° |
| 2026-05-06 17:42 | 51.39746 | -108.91550 | 36015 ft | 401 kts | 289° |
| 2026-05-06 17:42 | 51.40950 | -109.02116 | 36015 ft | 401 kts | 289° |
| 2026-05-06 17:43 | 51.42157 | -109.12788 | 36012 ft | 401 kts | 289° |
| 2026-05-06 17:43 | 51.43358 | -109.23490 | 36015 ft | 401 kts | 288° |
| 2026-05-06 17:44 | 51.44550 | -109.34212 | 36009 ft | 401 kts | 288° |
| 2026-05-06 17:44 | 51.45734 | -109.44971 | 36003 ft | 400 kts | 288° |
| 2026-05-06 17:45 | 51.46898 | -109.55640 | 36000 ft | 400 kts | 288° |
| 2026-05-06 17:45 | 51.48066 | -109.66428 | 35992 ft | 400 kts | 287° |
| 2026-05-06 17:46 | 51.49195 | -109.76959 | 35989 ft | 401 kts | 287° |
| 2026-05-06 17:46 | 51.50337 | -109.87693 | 35984 ft | 402 kts | 287° |
| 2026-05-06 17:47 | 51.51472 | -109.98555 | 35975 ft | 402 kts | 286° |
| 2026-05-06 17:47 | 51.52238 | -110.09285 | 35977 ft | 404 kts | 284° |
| 2026-05-06 17:48 | 51.52953 | -110.20290 | 35974 ft | 404 kts | 283° |
| 2026-05-06 17:48 | 51.53652 | -110.31246 | 35969 ft | 404 kts | 283° |
| 2026-05-06 17:49 | 51.54348 | -110.42313 | 35969 ft | 404 kts | 283° |
| 2026-05-06 17:49 | 51.55036 | -110.53374 | 35961 ft | 404 kts | 283° |
| 2026-05-06 17:50 | 51.55700 | -110.64259 | 35958 ft | 405 kts | 283° |
| 2026-05-06 17:50 | 51.56335 | -110.74805 | 35956 ft | 405 kts | 283° |
| 2026-05-06 17:51 | 51.56972 | -110.85553 | 35955 ft | 405 kts | 282° |
| 2026-05-06 17:51 | 51.57597 | -110.96290 | 35952 ft | 405 kts | 282° |
| 2026-05-06 17:52 | 51.58217 | -111.07046 | 35948 ft | 405 kts | 282° |
| 2026-05-06 17:52 | 51.58821 | -111.17738 | 35946 ft | 406 kts | 282° |
| 2026-05-06 17:53 | 51.59410 | -111.28376 | 35937 ft | 405 kts | 282° |
| 2026-05-06 17:53 | 51.59987 | -111.38921 | 35587 ft | 404 kts | 282° |
| 2026-05-06 17:54 | 51.60276 | -111.44281 | 34975 ft | 403 kts | 282° |
| 2026-05-06 17:54 | 51.60565 | -111.49655 | 34242 ft | 404 kts | 282° |
| 2026-05-06 17:54 | 51.60857 | -111.55173 | 33356 ft | 405 kts | 282° |
| 2026-05-06 17:54 | 51.61144 | -111.60620 | 32550 ft | 404 kts | 282° |
| 2026-05-06 17:55 | 51.61422 | -111.65981 | 31742 ft | 404 kts | 281° |
| 2026-05-06 17:55 | 51.61697 | -111.71307 | 30926 ft | 404 kts | 281° |
| 2026-05-06 17:55 | 51.61980 | -111.76819 | 30074 ft | 405 kts | 281° |
| 2026-05-06 17:55 | 51.62260 | -111.82317 | 29258 ft | 405 kts | 281° |
| 2026-05-06 17:56 | 51.62534 | -111.87717 | 28422 ft | 407 kts | 281° |
| 2026-05-06 17:56 | 51.62801 | -111.93118 | 27818 ft | 402 kts | 281° |
| 2026-05-06 17:56 | 51.63060 | -111.98424 | 27274 ft | 396 kts | 280° |
| 2026-05-06 17:56 | 51.63293 | -112.03230 | 26765 ft | 391 kts | 280° |
| 2026-05-06 17:57 | 51.63515 | -112.07815 | 26270 ft | 388 kts | 280° |
| 2026-05-06 17:57 | 51.63746 | -112.12631 | 25747 ft | 384 kts | 280° |
| 2026-05-06 17:57 | 51.63992 | -112.17754 | 25195 ft | 380 kts | 281° |
| 2026-05-06 17:57 | 51.64223 | -112.22658 | 24658 ft | 377 kts | 281° |
| 2026-05-06 17:58 | 51.64460 | -112.27654 | 24109 ft | 373 kts | 280° |
| 2026-05-06 17:58 | 51.64687 | -112.32563 | 23581 ft | 370 kts | 280° |
| 2026-05-06 17:58 | 51.64914 | -112.37523 | 23031 ft | 367 kts | 280° |
| 2026-05-06 17:58 | 51.65044 | -112.42549 | 22458 ft | 369 kts | 275° |
| 2026-05-06 17:59 | 51.64690 | -112.47581 | 21872 ft | 374 kts | 265° |
| 2026-05-06 17:59 | 51.63853 | -112.52432 | 21305 ft | 377 kts | 258° |
| 2026-05-06 17:59 | 51.62861 | -112.57035 | 20746 ft | 376 kts | 257° |
| 2026-05-06 17:59 | 51.61876 | -112.61501 | 20209 ft | 375 kts | 257° |
| 2026-05-06 18:00 | 51.60922 | -112.65846 | 19684 ft | 373 kts | 257° |
| 2026-05-06 18:00 | 51.59965 | -112.70213 | 19147 ft | 371 kts | 257° |
| 2026-05-06 18:00 | 51.59022 | -112.74538 | 18606 ft | 370 kts | 256° |
| 2026-05-06 18:00 | 51.58087 | -112.78809 | 18067 ft | 369 kts | 256° |
| 2026-05-06 18:01 | 51.57221 | -112.82753 | 17575 ft | 369 kts | 256° |
| 2026-05-06 18:01 | 51.56325 | -112.86829 | 17076 ft | 367 kts | 256° |
| 2026-05-06 18:01 | 51.55447 | -112.90828 | 16588 ft | 366 kts | 256° |
| 2026-05-06 18:01 | 51.54561 | -112.94862 | 16092 ft | 364 kts | 256° |
| 2026-05-06 18:02 | 51.53701 | -112.98767 | 15606 ft | 363 kts | 256° |
| 2026-05-06 18:02 | 51.52837 | -113.02682 | 15259 ft | 356 kts | 256° |
| 2026-05-06 18:02 | 51.52016 | -113.06377 | 15107 ft | 343 kts | 256° |
| 2026-05-06 18:02 | 51.51220 | -113.09948 | 14951 ft | 331 kts | 257° |
| 2026-05-06 18:03 | 51.50454 | -113.13381 | 14809 ft | 319 kts | 257° |
| 2026-05-06 18:03 | 51.49720 | -113.16671 | 14619 ft | 309 kts | 257° |
| 2026-05-06 18:03 | 51.48999 | -113.19896 | 14484 ft | 297 kts | 257° |
| 2026-05-06 18:03 | 51.48317 | -113.22942 | 14386 ft | 284 kts | 257° |
| 2026-05-06 18:04 | 51.47554 | -113.25835 | 14282 ft | 283 kts | 249° |
| 2026-05-06 18:04 | 51.46446 | -113.28558 | 13983 ft | 291 kts | 239° |
| 2026-05-06 18:04 | 51.45154 | -113.31110 | 13605 ft | 291 kts | 237° |
| 2026-05-06 18:04 | 51.43830 | -113.33633 | 13244 ft | 289 kts | 237° |
| 2026-05-06 18:05 | 51.42536 | -113.36093 | 12905 ft | 286 kts | 237° |
| 2026-05-06 18:05 | 51.41256 | -113.38536 | 12589 ft | 283 kts | 237° |
| 2026-05-06 18:05 | 51.39979 | -113.40981 | 12238 ft | 281 kts | 237° |
| 2026-05-06 18:05 | 51.38711 | -113.43415 | 11912 ft | 279 kts | 237° |
| 2026-05-06 18:06 | 51.37460 | -113.45820 | 11591 ft | 278 kts | 237° |
| 2026-05-06 18:06 | 51.36206 | -113.48227 | 11239 ft | 277 kts | 237° |
| 2026-05-06 18:06 | 51.34966 | -113.50606 | 10904 ft | 275 kts | 237° |
| 2026-05-06 18:06 | 51.33719 | -113.52994 | 10580 ft | 274 kts | 237° |
| 2026-05-06 18:07 | 51.32503 | -113.55325 | 10257 ft | 272 kts | 237° |
| 2026-05-06 18:07 | 51.31286 | -113.57655 | 9933 ft | 272 kts | 237° |
| 2026-05-06 18:07 | 51.30054 | -113.60011 | 9607 ft | 271 kts | 236° |
| 2026-05-06 18:07 | 51.28841 | -113.62364 | 9270 ft | 269 kts | 240° |
| 2026-05-06 18:08 | 51.28146 | -113.64990 | 8890 ft | 254 kts | 271° |
| 2026-05-06 18:08 | 51.28442 | -113.67693 | 8858 ft | 243 kts | 295° |
| 2026-05-06 18:08 | 51.29115 | -113.70163 | 8880 ft | 244 kts | 296° |
| 2026-05-06 18:08 | 51.29784 | -113.72662 | 8902 ft | 245 kts | 295° |
| 2026-05-06 18:09 | 51.30452 | -113.75213 | 8932 ft | 245 kts | 295° |
| 2026-05-06 18:09 | 51.31108 | -113.77750 | 8956 ft | 244 kts | 295° |
| 2026-05-06 18:09 | 51.31763 | -113.80296 | 8964 ft | 244 kts | 295° |
| 2026-05-06 18:09 | 51.32501 | -113.82787 | 8958 ft | 238 kts | 309° |
| 2026-05-06 18:10 | 51.33794 | -113.84325 | 8964 ft | 236 kts | 340° |
| 2026-05-06 18:10 | 51.35450 | -113.84632 | 8993 ft | 237 kts | 358° |
| 2026-05-06 18:10 | 51.37086 | -113.84587 | 8813 ft | 234 kts | 357° |
| 2026-05-06 18:10 | 51.38734 | -113.84644 | 8368 ft | 236 kts | 349° |
| 2026-05-06 18:11 | 51.40190 | -113.85749 | 7872 ft | 237 kts | 313° |
| 2026-05-06 18:11 | 51.41030 | -113.88059 | 7481 ft | 239 kts | 287° |
| 2026-05-06 18:11 | 51.41123 | -113.90803 | 7077 ft | 244 kts | 260° |
| 2026-05-06 18:11 | 51.40343 | -113.93443 | 6664 ft | 249 kts | 230° |
| 2026-05-06 18:12 | 51.38890 | -113.95076 | 6488 ft | 249 kts | 205° |
| 2026-05-06 18:12 | 51.37217 | -113.96143 | 6484 ft | 251 kts | 204° |
| 2026-05-06 18:12 | 51.35536 | -113.97223 | 6481 ft | 252 kts | 204° |
| 2026-05-06 18:12 | 51.33775 | -113.98309 | 6483 ft | 252 kts | 200° |
| 2026-05-06 18:13 | 51.31783 | -113.98954 | 6484 ft | 254 kts | 187° |
| 2026-05-06 18:13 | 51.29734 | -113.99065 | 6417 ft | 256 kts | 181° |
| 2026-05-06 18:13 | 51.27727 | -113.99021 | 6062 ft | 255 kts | 181° |
| 2026-05-06 18:13 | 51.25796 | -113.99007 | 5677 ft | 246 kts | 181° |
| 2026-05-06 18:14 | 51.23916 | -113.99013 | 5315 ft | 234 kts | 181° |
| 2026-05-06 18:14 | 51.22113 | -113.99019 | 5052 ft | 208 kts | 181° |
| 2026-05-06 18:14 | 51.20551 | -113.99022 | 4701 ft | 189 kts | 181° |
| 2026-05-06 18:14 | 51.19163 | -113.99024 | 4449 ft | 169 kts | 181° |
| 2026-05-06 18:15 | 51.17951 | -113.99026 | 4190 ft | 150 kts | 181° |
| 2026-05-06 18:15 | 51.16857 | -113.99034 | 3950 ft | 143 kts | 181° |
| 2026-05-06 18:15 | 51.15747 | -113.99042 | 3769 ft | 143 kts | 180° |
| 2026-05-06 18:15 | 51.14705 | -113.99040 | 3633 ft | 143 kts | 180° |
| 2026-05-06 18:16 | 51.13683 | -113.99054 | 3586 ft | 121 kts | 179° |
| 2026-05-06 18:16 | 51.12993 | -113.99052 | 3577 ft | 65 kts | 180° |
| 2026-05-06 18:16 | 51.12694 | -113.99036 | 3574 ft | 23 kts | 180° |
| 2026-05-06 18:16 | 51.12516 | -113.99036 | 3571 ft | 23 kts | 184° |
| 2026-05-06 18:17 | 51.12356 | -113.99126 | 3570 ft | 21 kts | 212° |
| 2026-05-06 18:17 | 51.12333 | -113.99308 | 3570 ft | 18 kts | 345° |
| 2026-05-06 18:17 | 51.12466 | -113.99317 | 3573 ft | 16 kts | 359° |
| 2026-05-06 18:17 | 51.12584 | -113.99338 | 3575 ft | 14 kts | 320° |
| 2026-05-06 18:18 | 51.12613 | -113.99509 | 3574 ft | 15 kts | 267° |
| 2026-05-06 18:18 | 51.12610 | -113.99698 | 3574 ft | 15 kts | 270° |
| 2026-05-06 18:18 | 51.12610 | -113.99890 | 3571 ft | 16 kts | 269° |
| 2026-05-06 18:18 | 51.12612 | -114.00109 | 3566 ft | 19 kts | 271° |
| 2026-05-06 18:19 | 51.12610 | -114.00365 | 3562 ft | 20 kts | 268° |
| 2026-05-06 18:19 | 51.12617 | -114.00584 | 3560 ft | 13 kts | 291° |
| 2026-05-06 18:19 | 51.12707 | -114.00645 | 3562 ft | 12 kts | 355° |
| 2026-05-06 18:19 | 51.12797 | -114.00644 | 3563 ft | 11 kts | 2° |
| 2026-05-06 18:20 | 51.12870 | -114.00643 | 3564 ft | 5 kts | 357° |
| 2026-05-06 18:20 | 51.12896 | -114.00681 | 3564 ft | 5 kts | 281° |
| 2026-05-06 18:20 | 51.12901 | -114.00733 | 3565 ft | 3 kts | 275° |
| 2026-05-06 18:20 | 51.12903 | -114.00770 | 3565 ft | 0 kts | 275° |